sensor_id;sensor_type;location;lat;lon;timestamp;pressure;altitude;pressure_sealevel;temperature;humidity
30744;BME280;17486;46.738;7.622;2023-03-24T00:01:50;94526.16;;;13.84;50.80
30744;BME280;17486;46.738;7.622;2023-03-24T00:04:15;94571.94;;;14.25;50.81
30744;BME280;17486;46.738;7.622;2023-03-24T00:06:41;94580.16;;;14.32;50.49
30744;BME280;17486;46.738;7.622;2023-03-24T00:09:07;94577.78;;;14.40;50.44
30744;BME280;17486;46.738;7.622;2023-03-24T00:11:33;94583.22;;;14.26;51.05
30744;BME280;17486;46.738;7.622;2023-03-24T00:13:59;94497.59;;;13.70;50.86
30744;BME280;17486;46.738;7.622;2023-03-24T00:16:25;94539.41;;;13.94;50.96
30744;BME280;17486;46.738;7.622;2023-03-24T00:18:51;94568.72;;;13.98;50.87
30744;BME280;17486;46.738;7.622;2023-03-24T00:21:20;94553.78;;;14.00;50.82
30744;BME280;17486;46.738;7.622;2023-03-24T00:23:46;94603.91;;;14.29;50.81
30744;BME280;17486;46.738;7.622;2023-03-24T00:26:14;94595.97;;;14.31;50.98
30744;BME280;17486;46.738;7.622;2023-03-24T00:28:42;94605.84;;;14.38;51.19
30744;BME280;17486;46.738;7.622;2023-03-24T00:31:08;94593.72;;;14.37;50.72
30744;BME280;17486;46.738;7.622;2023-03-24T00:33:35;94538.72;;;14.03;50.47
30744;BME280;17486;46.738;7.622;2023-03-24T00:36:02;94582.84;;;14.19;50.61
30744;BME280;17486;46.738;7.622;2023-03-24T00:38:29;94598.22;;;14.35;50.40
30744;BME280;17486;46.738;7.622;2023-03-24T00:40:55;94528.47;;;14.00;50.62
30744;BME280;17486;46.738;7.622;2023-03-24T00:43:21;94571.34;;;14.33;50.28
30744;BME280;17486;46.738;7.622;2023-03-24T00:45:46;94612.75;;;14.51;50.11
30744;BME280;17486;46.738;7.622;2023-03-24T00:48:14;94605.84;;;14.50;50.19
30744;BME280;17486;46.738;7.622;2023-03-24T00:50:43;94548.03;;;14.19;50.24
30744;BME280;17486;46.738;7.622;2023-03-24T00:53:09;94612.63;;;14.52;50.01
30744;BME280;17486;46.738;7.622;2023-03-24T00:55:35;94603.69;;;14.43;50.05
30744;BME280;17486;46.738;7.622;2023-03-24T00:58:02;94563.66;;;14.07;50.42
30744;BME280;17486;46.738;7.622;2023-03-24T01:00:28;94645.22;;;14.48;50.70
30744;BME280;17486;46.738;7.622;2023-03-24T01:02:55;94606.91;;;14.36;50.68
30744;BME280;17486;46.738;7.622;2023-03-24T01:05:24;94568.53;;;14.12;51.37
30744;BME280;17486;46.738;7.622;2023-03-24T01:07:50;94653.88;;;14.37;51.51
30744;BME280;17486;46.738;7.622;2023-03-24T01:10:18;94635.78;;;14.34;51.61
30744;BME280;17486;46.738;7.622;2023-03-24T01:12:44;94631.13;;;14.26;51.86
30744;BME280;17486;46.738;7.622;2023-03-24T01:15:16;94603.00;;;14.06;52.48
30744;BME280;17486;46.738;7.622;2023-03-24T01:17:42;94603.38;;;14.13;52.06
30744;BME280;17486;46.738;7.622;2023-03-24T01:20:09;94619.56;;;14.18;52.54
30744;BME280;17486;46.738;7.622;2023-03-24T01:22:38;94607.31;;;14.07;52.30
30744;BME280;17486;46.738;7.622;2023-03-24T01:25:04;94588.16;;;14.06;52.44
30744;BME280;17486;46.738;7.622;2023-03-24T01:27:30;94585.53;;;14.06;52.55
30744;BME280;17486;46.738;7.622;2023-03-24T01:30:00;94578.19;;;14.12;52.46
30744;BME280;17486;46.738;7.622;2023-03-24T01:32:26;94523.06;;;13.79;52.57
30744;BME280;17486;46.738;7.622;2023-03-24T01:34:52;94509.50;;;13.74;52.35
30744;BME280;17486;46.738;7.622;2023-03-24T01:37:18;94585.91;;;14.13;52.44
30744;BME280;17486;46.738;7.622;2023-03-24T01:39:43;94496.34;;;13.75;52.68
30744;BME280;17486;46.738;7.622;2023-03-24T01:42:17;94479.06;;;13.62;52.72
30744;BME280;17486;46.738;7.622;2023-03-24T01:44:48;94543.13;;;13.79;53.66
30744;BME280;17486;46.738;7.622;2023-03-24T01:47:14;94519.25;;;13.35;54.23
30744;BME280;17486;46.738;7.622;2023-03-24T01:49:57;94475.59;;;13.13;54.04
30744;BME280;17486;46.738;7.622;2023-03-24T01:52:29;94464.56;;;13.09;54.19
30744;BME280;17486;46.738;7.622;2023-03-24T01:55:02;94531.31;;;13.37;54.14
30744;BME280;17486;46.738;7.622;2023-03-24T01:57:35;94531.63;;;13.33;55.05
30744;BME280;17486;46.738;7.622;2023-03-24T02:00:06;94466.66;;;13.04;54.52
30744;BME280;17486;46.738;7.622;2023-03-24T02:02:33;94432.84;;;13.02;54.56
30744;BME280;17486;46.738;7.622;2023-03-24T02:05:03;94502.88;;;13.46;54.70
30744;BME280;17486;46.738;7.622;2023-03-24T02:10:15;94504.50;;;13.47;54.54
30744;BME280;17486;46.738;7.622;2023-03-24T02:12:42;94437.50;;;13.10;54.20
30744;BME280;17486;46.738;7.622;2023-03-24T02:15:09;94500.28;;;13.57;54.19
30744;BME280;17486;46.738;7.622;2023-03-24T02:17:57;94507.91;;;13.60;54.11
30744;BME280;17486;46.738;7.622;2023-03-24T02:44:33;94478.34;;;13.35;54.58
30744;BME280;17486;46.738;7.622;2023-03-24T02:47:04;94508.78;;;13.48;54.50
30744;BME280;17486;46.738;7.622;2023-03-24T02:49:44;94498.53;;;13.57;54.17
30744;BME280;17486;46.738;7.622;2023-03-24T02:55:02;94487.13;;;13.58;53.57
30744;BME280;17486;46.738;7.622;2023-03-24T02:57:36;94490.31;;;13.62;53.60
30744;BME280;17486;46.738;7.622;2023-03-24T03:00:12;94430.59;;;13.33;53.74
30744;BME280;17486;46.738;7.622;2023-03-24T03:02:49;94505.56;;;13.68;53.51
30744;BME280;17486;46.738;7.622;2023-03-24T03:05:42;94500.59;;;13.76;53.50
30744;BME280;17486;46.738;7.622;2023-03-24T03:08:12;94476.94;;;13.67;53.11
30744;BME280;17486;46.738;7.622;2023-03-24T03:10:44;94494.66;;;13.74;53.15
30744;BME280;17486;46.738;7.622;2023-03-24T03:13:30;94492.03;;;13.74;53.29
30744;BME280;17486;46.738;7.622;2023-03-24T03:16:03;94445.19;;;13.36;53.42
30744;BME280;17486;46.738;7.622;2023-03-24T03:18:39;94510.06;;;13.66;53.39
30744;BME280;17486;46.738;7.622;2023-03-24T03:21:12;94491.19;;;13.63;52.91
30744;BME280;17486;46.738;7.622;2023-03-24T03:23:48;94460.16;;;13.58;53.37
30744;BME280;17486;46.738;7.622;2023-03-24T03:26:17;94414.97;;;13.20;53.20
30744;BME280;17486;46.738;7.622;2023-03-24T03:28:50;94440.22;;;13.33;53.58
30744;BME280;17486;46.738;7.622;2023-03-24T03:31:31;94488.66;;;13.61;53.88
30744;BME280;17486;46.738;7.622;2023-03-24T03:34:08;94481.06;;;13.58;53.68
30744;BME280;17486;46.738;7.622;2023-03-24T03:36:54;94493.31;;;13.69;53.74
30744;BME280;17486;46.738;7.622;2023-03-24T03:39:44;94498.81;;;13.77;53.50
30744;BME280;17486;46.738;7.622;2023-03-24T03:42:12;94439.22;;;13.47;53.35
30744;BME280;17486;46.738;7.622;2023-03-24T03:44:37;94455.28;;;13.53;53.17
30744;BME280;17486;46.738;7.622;2023-03-24T03:47:03;94449.09;;;13.54;53.11
30744;BME280;17486;46.738;7.622;2023-03-24T03:49:28;94441.88;;;13.58;53.11
30744;BME280;17486;46.738;7.622;2023-03-24T03:51:54;94422.63;;;13.59;53.08
30744;BME280;17486;46.738;7.622;2023-03-24T03:54:22;94488.28;;;13.90;52.87
30744;BME280;17486;46.738;7.622;2023-03-24T03:56:49;94488.53;;;13.98;53.29
30744;BME280;17486;46.738;7.622;2023-03-24T03:59:30;94442.28;;;13.76;52.85
30744;BME280;17486;46.738;7.622;2023-03-24T04:02:05;94491.41;;;14.06;52.65
30744;BME280;17486;46.738;7.622;2023-03-24T04:04:52;94506.84;;;14.09;52.45
30744;BME280;17486;46.738;7.622;2023-03-24T04:07:22;94521.47;;;14.12;52.42
30744;BME280;17486;46.738;7.622;2023-03-24T04:12:48;94504.47;;;14.06;52.74
30744;BME280;17486;46.738;7.622;2023-03-24T04:16:14;94505.53;;;14.04;52.82
30744;BME280;17486;46.738;7.622;2023-03-24T04:21:09;94525.03;;;14.00;52.98
30744;BME280;17486;46.738;7.622;2023-03-24T04:26:33;94504.44;;;13.95;53.03
30744;BME280;17486;46.738;7.622;2023-03-24T04:31:44;94514.75;;;13.85;53.56
30744;BME280;17486;46.738;7.622;2023-03-24T04:34:23;94512.16;;;13.85;53.69
30744;BME280;17486;46.738;7.622;2023-03-24T04:37:01;94471.91;;;13.52;53.55
30744;BME280;17486;46.738;7.622;2023-03-24T04:39:32;94484.72;;;13.55;53.52
30744;BME280;17486;46.738;7.622;2023-03-24T04:42:05;94468.28;;;13.42;53.86
30744;BME280;17486;46.738;7.622;2023-03-24T04:44:32;94512.00;;;13.75;53.74
30744;BME280;17486;46.738;7.622;2023-03-24T04:46:59;94475.56;;;13.50;53.96
30744;BME280;17486;46.738;7.622;2023-03-24T04:49:26;94530.31;;;13.75;53.84
30744;BME280;17486;46.738;7.622;2023-03-24T04:51:53;94559.31;;;13.84;54.14
30744;BME280;17486;46.738;7.622;2023-03-24T04:54:20;94561.06;;;13.83;54.16
30744;BME280;17486;46.738;7.622;2023-03-24T04:56:56;94537.06;;;13.78;54.23
30744;BME280;17486;46.738;7.622;2023-03-24T04:59:22;94526.72;;;13.76;54.41
30744;BME280;17486;46.738;7.622;2023-03-24T05:01:47;94554.09;;;13.84;54.53
30744;BME280;17486;46.738;7.622;2023-03-24T05:04:17;94483.84;;;13.43;54.53
30744;BME280;17486;46.738;7.622;2023-03-24T05:06:43;94495.53;;;13.51;54.56
30744;BME280;17486;46.738;7.622;2023-03-24T05:09:12;94515.97;;;13.57;54.58
30744;BME280;17486;46.738;7.622;2023-03-24T05:11:37;94520.47;;;13.55;54.79
30744;BME280;17486;46.738;7.622;2023-03-24T05:14:02;94560.00;;;13.74;54.75
30744;BME280;17486;46.738;7.622;2023-03-24T05:16:28;94545.25;;;13.73;54.88
30744;BME280;17486;46.738;7.622;2023-03-24T05:18:53;94560.00;;;13.74;54.82
30744;BME280;17486;46.738;7.622;2023-03-24T05:21:18;94546.63;;;13.66;55.16
30744;BME280;17486;46.738;7.622;2023-03-24T05:23:45;94497.34;;;13.37;54.99
30744;BME280;17486;46.738;7.622;2023-03-24T05:26:10;94559.69;;;13.66;55.24
30744;BME280;17486;46.738;7.622;2023-03-24T05:28:35;94543.13;;;13.54;55.04
30744;BME280;17486;46.738;7.622;2023-03-24T05:31:01;94522.00;;;13.33;55.24
30744;BME280;17486;46.738;7.622;2023-03-24T05:33:26;94574.88;;;13.61;55.68
30744;BME280;17486;46.738;7.622;2023-03-24T05:35:52;94575.00;;;13.59;55.60
30744;BME280;17486;46.738;7.622;2023-03-24T05:38:17;94573.44;;;13.57;55.78
30744;BME280;17486;46.738;7.622;2023-03-24T05:40:43;94528.63;;;13.26;55.88
30744;BME280;17486;46.738;7.622;2023-03-24T05:43:08;94568.44;;;13.54;55.72
30744;BME280;17486;46.738;7.622;2023-03-24T05:45:36;94501.31;;;13.06;55.85
30744;BME280;17486;46.738;7.622;2023-03-24T05:48:02;94551.47;;;13.35;55.83
30744;BME280;17486;46.738;7.622;2023-03-24T05:50:27;94539.22;;;13.36;55.94
30744;BME280;17486;46.738;7.622;2023-03-24T05:52:53;94532.91;;;13.27;56.06
30744;BME280;17486;46.738;7.622;2023-03-24T05:55:18;94602.38;;;13.67;56.62
30744;BME280;17486;46.738;7.622;2023-03-24T05:57:44;94545.50;;;13.33;56.93
30744;BME280;17486;46.738;7.622;2023-03-24T06:00:11;94611.03;;;13.67;57.18
30744;BME280;17486;46.738;7.622;2023-03-24T06:02:44;94631.50;;;13.73;57.19
30744;BME280;17486;46.738;7.622;2023-03-24T06:05:10;94628.88;;;13.73;57.01
30744;BME280;17486;46.738;7.622;2023-03-24T06:07:37;94584.56;;;13.48;56.97
30744;BME280;17486;46.738;7.622;2023-03-24T06:10:03;94658.03;;;13.80;57.26
30744;BME280;17486;46.738;7.622;2023-03-24T06:12:32;94584.03;;;13.42;57.79
30744;BME280;17486;46.738;7.622;2023-03-24T06:14:58;94619.75;;;13.79;58.36
30744;BME280;17486;46.738;7.622;2023-03-24T06:17:25;94621.78;;;13.75;58.40
30744;BME280;17486;46.738;7.622;2023-03-24T06:19:53;94632.00;;;13.79;58.71
30744;BME280;17486;46.738;7.622;2023-03-24T06:22:19;94597.56;;;13.60;59.15
30744;BME280;17486;46.738;7.622;2023-03-24T06:24:45;94586.34;;;13.34;59.04
30744;BME280;17486;46.738;7.622;2023-03-24T06:27:14;94593.25;;;13.35;58.97
30744;BME280;17486;46.738;7.622;2023-03-24T06:29:40;94589.63;;;13.38;59.25
30744;BME280;17486;46.738;7.622;2023-03-24T06:32:09;94633.22;;;13.62;59.71
30744;BME280;17486;46.738;7.622;2023-03-24T06:34:35;94660.97;;;13.75;59.82
30744;BME280;17486;46.738;7.622;2023-03-24T06:37:03;94612.66;;;13.44;59.96
30744;BME280;17486;46.738;7.622;2023-03-24T06:39:28;94664.94;;;13.81;60.12
30744;BME280;17486;46.738;7.622;2023-03-24T06:41:54;94661.38;;;13.82;60.39
30744;BME280;17486;46.738;7.622;2023-03-24T06:44:20;94674.03;;;13.75;60.92
30744;BME280;17486;46.738;7.622;2023-03-24T06:46:45;94621.59;;;13.41;61.19
30744;BME280;17486;46.738;7.622;2023-03-24T06:49:11;94683.75;;;13.73;61.49
30744;BME280;17486;46.738;7.622;2023-03-24T06:51:36;94700.59;;;13.69;61.82
30744;BME280;17486;46.738;7.622;2023-03-24T06:54:02;94643.72;;;13.23;62.50
30744;BME280;17486;46.738;7.622;2023-03-24T06:56:28;94694.66;;;13.54;62.59
30744;BME280;17486;46.738;7.622;2023-03-24T06:58:54;94639.53;;;13.20;61.96
30744;BME280;17486;46.738;7.622;2023-03-24T07:01:19;94697.41;;;13.53;61.74
30744;BME280;17486;46.738;7.622;2023-03-24T07:03:45;94723.22;;;13.57;61.44
30744;BME280;17486;46.738;7.622;2023-03-24T07:06:10;94715.50;;;13.56;61.18
30744;BME280;17486;46.738;7.622;2023-03-24T07:08:36;94692.59;;;13.47;61.40
30744;BME280;17486;46.738;7.622;2023-03-24T07:11:01;94657.31;;;13.15;61.04
30744;BME280;17486;46.738;7.622;2023-03-24T07:13:28;94644.34;;;13.14;62.76
30744;BME280;17486;46.738;7.622;2023-03-24T07:15:54;94632.47;;;12.97;62.44
30744;BME280;17486;46.738;7.622;2023-03-24T07:18:19;94708.28;;;13.34;62.33
30744;BME280;17486;46.738;7.622;2023-03-24T07:20:45;94703.69;;;13.37;62.64
30744;BME280;17486;46.738;7.622;2023-03-24T07:23:12;94718.72;;;13.47;62.69
30744;BME280;17486;46.738;7.622;2023-03-24T07:25:40;94605.66;;;12.94;62.46
30744;BME280;17486;46.738;7.622;2023-03-24T07:28:06;94643.06;;;13.32;62.09
30744;BME280;17486;46.738;7.622;2023-03-24T07:30:32;94666.94;;;13.40;61.38
30744;BME280;17486;46.738;7.622;2023-03-24T07:33:00;94700.22;;;13.63;60.88
30744;BME280;17486;46.738;7.622;2023-03-24T07:35:27;94696.44;;;13.67;60.83
30744;BME280;17486;46.738;7.622;2023-03-24T07:37:56;94692.03;;;13.67;60.43
30744;BME280;17486;46.738;7.622;2023-03-24T07:40:22;94717.63;;;13.75;60.41
30744;BME280;17486;46.738;7.622;2023-03-24T07:42:47;94655.41;;;13.56;60.37
30744;BME280;17486;46.738;7.622;2023-03-24T07:45:12;94709.25;;;13.83;60.10
30744;BME280;17486;46.738;7.622;2023-03-24T07:47:38;94687.59;;;13.81;60.17
30744;BME280;17486;46.738;7.622;2023-03-24T07:50:07;94633.53;;;13.57;59.69
30744;BME280;17486;46.738;7.622;2023-03-24T07:52:40;94684.56;;;13.87;59.92
30744;BME280;17486;46.738;7.622;2023-03-24T07:55:08;94597.72;;;13.33;59.76
30744;BME280;17486;46.738;7.622;2023-03-24T07:57:36;94691.34;;;13.89;59.90
30744;BME280;17486;46.738;7.622;2023-03-24T08:00:05;94677.56;;;13.87;59.50
30744;BME280;17486;46.738;7.622;2023-03-24T08:02:43;94677.41;;;14.02;59.66
30744;BME280;17486;46.738;7.622;2023-03-24T08:05:08;94627.28;;;13.84;59.66
30744;BME280;17486;46.738;7.622;2023-03-24T08:07:46;94693.63;;;14.18;59.03
30744;BME280;17486;46.738;7.622;2023-03-24T08:10:18;94637.31;;;14.01;58.98
30744;BME280;17486;46.738;7.622;2023-03-24T08:12:44;94674.13;;;14.22;58.50
30744;BME280;17486;46.738;7.622;2023-03-24T08:15:10;94607.38;;;13.94;58.62
30744;BME280;17486;46.738;7.622;2023-03-24T08:17:37;94689.78;;;14.35;58.57
30744;BME280;17486;46.738;7.622;2023-03-24T08:20:04;94669.91;;;14.33;58.24
30744;BME280;17486;46.738;7.622;2023-03-24T08:22:36;94678.50;;;14.35;58.24
30744;BME280;17486;46.738;7.622;2023-03-24T08:25:04;94689.66;;;14.37;58.16
30744;BME280;17486;46.738;7.622;2023-03-24T08:27:30;94634.94;;;13.98;58.25
30744;BME280;17486;46.738;7.622;2023-03-24T08:29:55;94665.41;;;14.10;58.73
30744;BME280;17486;46.738;7.622;2023-03-24T08:32:21;94669.38;;;14.16;58.91
30744;BME280;17486;46.738;7.622;2023-03-24T08:34:46;94688.28;;;14.20;58.85
30744;BME280;17486;46.738;7.622;2023-03-24T08:37:11;94622.38;;;13.79;58.55
30744;BME280;17486;46.738;7.622;2023-03-24T08:39:37;94612.03;;;13.77;58.66
30744;BME280;17486;46.738;7.622;2023-03-24T08:42:02;94672.81;;;14.17;58.50
30744;BME280;17486;46.738;7.622;2023-03-24T08:44:28;94621.78;;;13.75;58.83
30744;BME280;17486;46.738;7.622;2023-03-24T08:46:53;94686.94;;;14.14;58.99
30744;BME280;17486;46.738;7.622;2023-03-24T08:49:19;94682.53;;;14.15;58.85
30744;BME280;17486;46.738;7.622;2023-03-24T08:51:45;94687.91;;;14.13;59.25
30744;BME280;17486;46.738;7.622;2023-03-24T08:54:11;94672.13;;;14.26;59.36
30744;BME280;17486;46.738;7.622;2023-03-24T08:56:38;94693.81;;;14.28;59.65
30744;BME280;17486;46.738;7.622;2023-03-24T08:59:04;94663.63;;;14.35;59.51
30744;BME280;17486;46.738;7.622;2023-03-24T09:01:31;94687.94;;;14.24;59.79
30744;BME280;17486;46.738;7.622;2023-03-24T09:03:58;94692.72;;;14.06;60.34
30744;BME280;17486;46.738;7.622;2023-03-24T09:06:23;94678.44;;;13.99;60.54
30744;BME280;17486;46.738;7.622;2023-03-24T09:08:51;94665.88;;;14.04;60.59
30744;BME280;17486;46.738;7.622;2023-03-24T09:11:17;94649.91;;;13.96;60.21
30744;BME280;17486;46.738;7.622;2023-03-24T09:13:43;94667.66;;;14.28;60.11
30744;BME280;17486;46.738;7.622;2023-03-24T09:16:09;94657.94;;;14.41;61.01
30744;BME280;17486;46.738;7.622;2023-03-24T09:18:35;94677.56;;;14.47;60.18
30744;BME280;17486;46.738;7.622;2023-03-24T09:21:01;94671.34;;;14.72;59.10
30744;BME280;17486;46.738;7.622;2023-03-24T09:23:26;94627.72;;;14.37;58.87
30744;BME280;17486;46.738;7.622;2023-03-24T09:25:53;94631.91;;;14.40;58.49
30744;BME280;17486;46.738;7.622;2023-03-24T09:28:20;94672.25;;;14.60;58.37
30744;BME280;17486;46.738;7.622;2023-03-24T09:30:45;94680.84;;;14.62;58.27
30744;BME280;17486;46.738;7.622;2023-03-24T09:33:11;94690.81;;;14.57;58.20
30744;BME280;17486;46.738;7.622;2023-03-24T09:35:36;94691.31;;;14.62;58.00
30744;BME280;17486;46.738;7.622;2023-03-24T09:38:02;94699.16;;;14.62;58.25
30744;BME280;17486;46.738;7.622;2023-03-24T09:40:30;94712.53;;;14.70;57.99
30744;BME280;17486;46.738;7.622;2023-03-24T09:43:11;94681.81;;;14.72;58.50
30744;BME280;17486;46.738;7.622;2023-03-24T09:45:48;94689.47;;;14.75;58.72
30744;BME280;17486;46.738;7.622;2023-03-24T09:48:39;94689.44;;;14.64;58.55
30744;BME280;17486;46.738;7.622;2023-03-24T09:51:37;94686.28;;;14.59;58.58
30744;BME280;17486;46.738;7.622;2023-03-24T09:56:56;94671.88;;;14.53;58.64
30744;BME280;17486;46.738;7.622;2023-03-24T09:59:35;94667.94;;;14.48;58.40
30744;BME280;17486;46.738;7.622;2023-03-24T10:02:10;94622.06;;;14.19;58.73
30744;BME280;17486;46.738;7.622;2023-03-24T10:04:36;94670.28;;;14.39;58.69
30744;BME280;17486;46.738;7.622;2023-03-24T10:09:36;94588.31;;;14.16;59.56
30744;BME280;17486;46.738;7.622;2023-03-24T10:14:39;94626.88;;;14.84;58.20
30744;BME280;17486;46.738;7.622;2023-03-24T10:17:35;94596.13;;;14.63;58.66
30744;BME280;17486;46.738;7.622;2023-03-24T10:23:01;94624.97;;;15.31;57.41
30744;BME280;17486;46.738;7.622;2023-03-24T10:25:43;94612.84;;;15.30;56.22
30744;BME280;17486;46.738;7.622;2023-03-24T10:28:26;94608.31;;;15.21;55.52
30744;BME280;17486;46.738;7.622;2023-03-24T10:30:56;94603.19;;;15.42;56.32
30744;BME280;17486;46.738;7.622;2023-03-24T10:33:25;94622.31;;;15.65;56.43
30744;BME280;17486;46.738;7.622;2023-03-24T10:36:05;94622.78;;;15.82;55.86
30744;BME280;17486;46.738;7.622;2023-03-24T10:38:32;94625.38;;;15.93;54.34
30744;BME280;17486;46.738;7.622;2023-03-24T10:40:58;94603.56;;;15.93;54.25
30744;BME280;17486;46.738;7.622;2023-03-24T10:43:25;94620.94;;;15.94;54.50
30744;BME280;17486;46.738;7.622;2023-03-24T10:45:52;94617.97;;;15.98;54.28
30744;BME280;17486;46.738;7.622;2023-03-24T10:48:46;94612.13;;;15.95;54.24
30744;BME280;17486;46.738;7.622;2023-03-24T10:51:32;94612.16;;;16.16;54.68
30744;BME280;17486;46.738;7.622;2023-03-24T10:54:11;94582.59;;;16.14;54.00
30744;BME280;17486;46.738;7.622;2023-03-24T10:56:42;94577.25;;;15.83;54.06
30744;BME280;17486;46.738;7.622;2023-03-24T11:04:39;94608.63;;;16.05;53.47
30744;BME280;17486;46.738;7.622;2023-03-24T11:07:17;94661.13;;;16.27;53.64
30744;BME280;17486;46.738;7.622;2023-03-24T11:12:31;94585.13;;;15.71;53.52
30744;BME280;17486;46.738;7.622;2023-03-24T11:15:23;94650.00;;;16.02;54.11
30744;BME280;17486;46.738;7.622;2023-03-24T11:25:46;94695.72;;;16.20;53.41
30744;BME280;17486;46.738;7.622;2023-03-24T11:28:16;94668.22;;;16.15;55.38
30744;BME280;17486;46.738;7.622;2023-03-24T11:30:52;94714.66;;;16.35;57.08
30744;BME280;17486;46.738;7.622;2023-03-24T11:35:44;94720.41;;;16.29;58.21
30744;BME280;17486;46.738;7.622;2023-03-24T11:38:15;94722.16;;;16.07;59.16
30744;BME280;17486;46.738;7.622;2023-03-24T11:40:52;94700.25;;;15.86;59.97
30744;BME280;17486;46.738;7.622;2023-03-24T11:43:20;94714.31;;;15.73;60.55
30744;BME280;17486;46.738;7.622;2023-03-24T11:46:00;94742.94;;;15.88;60.60
30744;BME280;17486;46.738;7.622;2023-03-24T11:48:45;94704.75;;;15.61;60.46
30744;BME280;17486;46.738;7.622;2023-03-24T11:51:27;94670.97;;;15.24;60.76
30744;BME280;17486;46.738;7.622;2023-03-24T11:53:55;94753.38;;;15.65;60.96
30744;BME280;17486;46.738;7.622;2023-03-24T11:56:41;94759.22;;;15.69;61.50
30744;BME280;17486;46.738;7.622;2023-03-24T12:26:35;94736.47;;;15.92;61.88
30744;BME280;17486;46.738;7.622;2023-03-24T12:43:22;94735.47;;;16.27;63.09
30744;BME280;17486;46.738;7.622;2023-03-24T12:45:53;94715.59;;;16.46;63.47
30744;BME280;17486;46.738;7.622;2023-03-24T12:48:23;94730.53;;;16.66;62.66
30744;BME280;17486;46.738;7.622;2023-03-24T12:51:45;94714.81;;;16.87;61.67
30744;BME280;17486;46.738;7.622;2023-03-24T12:53:52;94711.16;;;17.00;59.29
30744;BME280;17486;46.738;7.622;2023-03-24T12:56:20;94722.94;;;17.05;59.69
30744;BME280;17486;46.738;7.622;2023-03-24T12:58:56;94697.44;;;16.96;58.48
30744;BME280;17486;46.738;7.622;2023-03-24T13:01:40;94719.88;;;17.00;58.80
30744;BME280;17486;46.738;7.622;2023-03-24T13:04:10;94708.72;;;17.08;58.37
30744;BME280;17486;46.738;7.622;2023-03-24T13:06:43;94649.19;;;16.76;57.83
30744;BME280;17486;46.738;7.622;2023-03-24T13:09:18;94691.66;;;16.93;56.39
30744;BME280;17486;46.738;7.622;2023-03-24T13:14:30;94717.78;;;16.94;55.40
30744;BME280;17486;46.738;7.622;2023-03-24T13:17:04;94714.13;;;16.74;55.01
30744;BME280;17486;46.738;7.622;2023-03-24T13:19:32;94732.91;;;16.69;55.55
30744;BME280;17486;46.738;7.622;2023-03-24T13:21:59;94655.44;;;16.21;55.45
30744;BME280;17486;46.738;7.622;2023-03-24T13:24:25;94723.06;;;16.50;55.46
30744;BME280;17486;46.738;7.622;2023-03-24T13:26:59;94660.72;;;16.10;55.61
30744;BME280;17486;46.738;7.622;2023-03-24T13:29:51;94715.63;;;16.34;55.35
30744;BME280;17486;46.738;7.622;2023-03-24T13:35:19;94718.78;;;16.17;55.42
30744;BME280;17486;46.738;7.622;2023-03-24T13:37:55;94728.09;;;16.10;56.05
30744;BME280;17486;46.738;7.622;2023-03-24T13:40:27;94733.59;;;16.06;56.36
30744;BME280;17486;46.738;7.622;2023-03-24T13:42:56;94713.69;;;16.04;57.18
30744;BME280;17486;46.738;7.622;2023-03-24T13:45:38;94740.00;;;16.14;57.36
30744;BME280;17486;46.738;7.622;2023-03-24T13:53:39;94669.59;;;15.75;57.43
30744;BME280;17486;46.738;7.622;2023-03-24T13:56:08;94709.50;;;16.01;57.31
30744;BME280;17486;46.738;7.622;2023-03-24T13:58:50;94672.91;;;15.77;57.57
30744;BME280;17486;46.738;7.622;2023-03-24T14:01:38;94727.88;;;16.13;57.40
30744;BME280;17486;46.738;7.622;2023-03-24T14:04:26;94723.22;;;16.05;56.93
30744;BME280;17486;46.738;7.622;2023-03-24T14:06:55;94707.38;;;15.95;56.60
30744;BME280;17486;46.738;7.622;2023-03-24T14:09:29;94677.81;;;15.70;56.31
30744;BME280;17486;46.738;7.622;2023-03-24T14:14:29;94713.22;;;15.76;57.04
30744;BME280;17486;46.738;7.622;2023-03-24T14:22:32;94697.75;;;15.50;57.19
30744;BME280;17486;46.738;7.622;2023-03-24T14:25:03;94724.31;;;15.57;57.40
30744;BME280;17486;46.738;7.622;2023-03-24T14:27:35;94733.63;;;15.50;57.68
30744;BME280;17486;46.738;7.622;2023-03-24T14:30:33;94675.00;;;15.05;57.46
30744;BME280;17486;46.738;7.622;2023-03-24T14:33:04;94709.78;;;15.19;57.96
30744;BME280;17486;46.738;7.622;2023-03-24T14:35:46;94716.91;;;15.17;58.13
30744;BME280;17486;46.738;7.622;2023-03-24T14:40:40;94734.53;;;15.15;57.87
30744;BME280;17486;46.738;7.622;2023-03-24T14:49:04;94713.78;;;15.12;57.91
30744;BME280;17486;46.738;7.622;2023-03-24T14:54:10;94704.88;;;15.25;57.95
30744;BME280;17486;46.738;7.622;2023-03-24T14:56:39;94718.47;;;15.31;57.69
30744;BME280;17486;46.738;7.622;2023-03-24T14:59:29;94654.84;;;14.95;57.44
30744;BME280;17486;46.738;7.622;2023-03-24T15:07:45;94654.38;;;15.01;57.02
30744;BME280;17486;46.738;7.622;2023-03-24T15:10:16;94693.59;;;15.25;56.71
30744;BME280;17486;46.738;7.622;2023-03-24T15:12:46;94720.16;;;15.32;56.61
30744;BME280;17486;46.738;7.622;2023-03-24T15:15:15;94699.53;;;15.27;56.84
30744;BME280;17486;46.738;7.622;2023-03-24T15:17:41;94705.97;;;15.23;56.73
30744;BME280;17486;46.738;7.622;2023-03-24T15:20:22;94690.47;;;15.08;56.71
30744;BME280;17486;46.738;7.622;2023-03-24T15:22:49;94710.00;;;15.16;56.95
30744;BME280;17486;46.738;7.622;2023-03-24T15:25:15;94707.97;;;15.08;56.84
30744;BME280;17486;46.738;7.622;2023-03-24T15:27:48;94647.34;;;14.79;56.93
30744;BME280;17486;46.738;7.622;2023-03-24T15:30:15;94703.56;;;15.08;56.41
30744;BME280;17486;46.738;7.622;2023-03-24T15:32:41;94700.69;;;15.00;56.68
30744;BME280;17486;46.738;7.622;2023-03-24T15:35:13;94715.44;;;14.90;57.27
30744;BME280;17486;46.738;7.622;2023-03-24T15:37:41;94673.00;;;14.62;57.69
30744;BME280;17486;46.738;7.622;2023-03-24T15:42:59;94680.69;;;14.52;57.75
30744;BME280;17486;46.738;7.622;2023-03-24T15:45:37;94685.78;;;14.54;58.18
30744;BME280;17486;46.738;7.622;2023-03-24T15:48:12;94708.19;;;14.34;58.91